Llandybie, United Kingdom
Current Conditions -  °F | °C
As of 12:50 AM on Thursday 27 Nov 2014 (Local Time) from EGOP Reporting Station
Overcast Overcast  
Wind Chill: 34°   Ceiling: 4400
Heat Index: 37°   Visibility: 0.21mi
Dew Point: 36°   Wind: 5mph
Humidity: 93%   Direction: 70°ENE
Pressure: 29.71"   Gusts: NA
Location:  51.82°N, 4.01°W
Report Text: EGOP 270050Z AUTO 07004KT 0350 // OVC044/// 03/02 Q1006
Loading
Personal Weather Stations






























Interactive Weather Map New forecast layout! Learn more

10-Day Weather Forecast

Advertisements
Track Severe Weather on mobile